Time;durP1;ratioP1;P1;durP2;ratioP2;P2;SDS_P1;SDS_P2;PMS_P1;PMS_P2;Temp;Humidity;BMP_temperature;BMP_pressure;BME280_temperature;BME280_humidity;BME280_pressure;Samples;Min_cycle;Max_cycle;Signal;HPM_P1;HPM_P2
2024/01/04 00:00:25;;;;;;;8.85;4.07;;;;;;;;;;1036959;28;20101;-66
2024/01/04 00:01:16;;;;;;;6.22;3.80;;;;;;;;;;1037466;28;20053;-67
2024/01/04 00:01:46;;;;;;;7.15;4.00;;;;;;;;;;1037595;28;20049;-65
2024/01/04 00:02:17;;;;;;;8.00;4.00;;;;;;;;;;1037733;28;20037;-68
2024/01/04 00:02:47;;;;;;;7.00;3.55;;;;;;;;;;1036753;28;20041;-65
2024/01/04 00:03:19;;;;;;;5.88;3.75;;;;;;;;;;1038717;28;20617;-65
2024/01/04 00:03:50;;;;;;;8.55;3.90;;;;;;;;;;1036227;28;20115;-66
2024/01/04 00:04:20;;;;;;;8.73;3.65;;;;;;;;;;1038426;28;20107;-64
2024/01/04 00:04:51;;;;;;;7.32;3.70;;;;;;;;;;1036836;28;20061;-68
2024/01/04 00:05:22;;;;;;;5.68;3.83;;;;;;;;;;1037626;28;20084;-66
2024/01/04 00:05:52;;;;;;;6.35;3.60;;;;;;;;;;1036216;28;20057;-67
2024/01/04 00:06:23;;;;;;;8.23;3.85;;;;;;;;;;1038537;28;20103;-65
2024/01/04 00:06:53;;;;;;;6.65;4.03;;;;;;;;;;1036929;28;20049;-64
2024/01/04 00:07:24;;;;;;;7.95;3.75;;;;;;;;;;1038033;28;20133;-67
2024/01/04 00:07:55;;;;;;;6.75;3.40;;;;;;;;;;1037761;28;20053;-65
2024/01/04 00:08:25;;;;;;;6.53;3.85;;;;;;;;;;1037301;28;20390;-65
2024/01/04 00:08:56;;;;;;;7.18;3.40;;;;;;;;;;1038014;28;20064;-66
2024/01/04 00:09:26;;;;;;;12.15;3.58;;;;;;;;;;1036948;28;20148;-65
2024/01/04 00:09:57;;;;;;;6.20;3.97;;;;;;;;;;1036994;28;20053;-66
2024/01/04 00:10:27;;;;;;;7.75;4.00;;;;;;;;;;1037474;28;20484;-67
2024/01/04 00:10:58;;;;;;;8.02;3.95;;;;;;;;;;1037153;28;20078;-65
2024/01/04 00:11:28;;;;;;;9.20;3.80;;;;;;;;;;1036635;28;20103;-67
2024/01/04 00:11:59;;;;;;;7.85;3.30;;;;;;;;;;1038529;28;20110;-67
2024/01/04 00:12:30;;;;;;;9.60;3.95;;;;;;;;;;1036181;28;20053;-66
2024/01/04 00:13:00;;;;;;;7.30;3.67;;;;;;;;;;1036369;28;20207;-69
2024/01/04 00:13:31;;;;;;;5.80;3.20;;;;;;;;;;1036655;28;20045;-67
2024/01/04 00:14:02;;;;;;;7.57;3.83;;;;;;;;;;1035510;28;20489;-67
2024/01/04 00:14:33;;;;;;;5.35;3.55;;;;;;;;;;1035556;28;20068;-67
2024/01/04 00:15:04;;;;;;;7.07;3.45;;;;;;;;;;1036284;28;20061;-65
2024/01/04 00:15:34;;;;;;;9.82;3.50;;;;;;;;;;1037699;28;20434;-66
2024/01/04 00:16:11;;;;;;;7.18;3.60;;;;;;;;;;1038236;28;20520;-66
2024/01/04 00:16:42;;;;;;;6.68;3.55;;;;;;;;;;1038136;28;20091;-67
2024/01/04 00:17:12;;;;;;;5.50;3.50;;;;;;;;;;1038480;28;20096;-67
2024/01/04 00:17:43;;;;;;;8.77;3.40;;;;;;;;;;1037644;28;20478;-65
2024/01/04 00:18:13;;;;;;;8.15;3.67;;;;;;;;;;1037399;28;20053;-65
2024/01/04 00:18:44;;;;;;;9.07;4.03;;;;;;;;;;1036425;28;20048;-65
2024/01/04 00:19:14;;;;;;;5.43;3.60;;;;;;;;;;1037837;28;20088;-66
2024/01/04 00:19:45;;;;;;;7.18;3.47;;;;;;;;;;1037669;28;20103;-67
2024/01/04 00:20:16;;;;;;;9.10;3.22;;;;;;;;;;1037449;28;20041;-66
2024/01/04 00:20:47;;;;;;;7.10;3.33;;;;;;;;;;1037156;28;20045;-66
2024/01/04 00:21:17;;;;;;;9.85;3.42;;;;;;;;;;1038851;28;20687;-67
2024/01/04 00:21:48;;;;;;;4.65;2.95;;;;;;;;;;1037839;28;20410;-66
2024/01/04 00:22:18;;;;;;;7.43;3.60;;;;;;;;;;1037150;28;20044;-66
2024/01/04 00:22:49;;;;;;;5.97;3.20;;;;;;;;;;1037345;28;20190;-68
2024/01/04 00:23:19;;;;;;;5.07;3.17;;;;;;;;;;1038065;28;20536;-65
2024/01/04 00:23:50;;;;;;;8.70;3.70;;;;;;;;;;1037151;28;20635;-66
2024/01/04 00:24:20;;;;;;;6.00;3.40;;;;;;;;;;1037540;28;20050;-67
2024/01/04 00:24:51;;;;;;;6.78;3.47;;;;;;;;;;1038108;28;20135;-66
2024/01/04 00:25:21;;;;;;;5.55;3.45;;;;;;;;;;1037653;28;20049;-66
2024/01/04 00:25:52;;;;;;;7.25;3.35;;;;;;;;;;1037010;28;20054;-69
2024/01/04 00:26:22;;;;;;;7.70;3.70;;;;;;;;;;1037129;28;20164;-66
2024/01/04 00:26:53;;;;;;;10.18;3.50;;;;;;;;;;1037135;28;20052;-66
2024/01/04 00:27:23;;;;;;;6.43;3.17;;;;;;;;;;1036759;28;20868;-67
2024/01/04 00:27:54;;;;;;;6.68;3.28;;;;;;;;;;1036672;28;20056;-66
2024/01/04 00:28:24;;;;;;;5.75;3.88;;;;;;;;;;1038440;28;20148;-67
2024/01/04 00:28:55;;;;;;;5.32;3.72;;;;;;;;;;1037041;28;20049;-66
2024/01/04 00:29:25;;;;;;;4.68;3.08;;;;;;;;;;1038085;28;20111;-68
2024/01/04 00:29:56;;;;;;;9.82;3.42;;;;;;;;;;1037332;28;20537;-65
2024/01/04 00:30:26;;;;;;;7.55;3.40;;;;;;;;;;1038090;28;20049;-66
2024/01/04 00:30:57;;;;;;;6.00;3.28;;;;;;;;;;1037722;28;20385;-67
2024/01/04 00:31:28;;;;;;;6.38;3.67;;;;;;;;;;1037921;28;20037;-66
2024/01/04 00:31:58;;;;;;;9.13;3.90;;;;;;;;;;1037717;28;20057;-64
2024/01/04 00:32:29;;;;;;;6.72;3.55;;;;;;;;;;1037047;28;20053;-65
2024/01/04 00:32:59;;;;;;;6.72;3.90;;;;;;;;;;1036983;28;20667;-65
2024/01/04 00:33:30;;;;;;;8.30;3.80;;;;;;;;;;1038048;28;20056;-65
2024/01/04 00:34:00;;;;;;;10.38;3.75;;;;;;;;;;1037001;28;20099;-69
2024/01/04 00:34:31;;;;;;;8.80;3.35;;;;;;;;;;1038118;28;20041;-65
2024/01/04 00:35:02;;;;;;;7.88;3.50;;;;;;;;;;1036725;28;20065;-67
2024/01/04 00:35:32;;;;;;;6.78;3.25;;;;;;;;;;1037366;28;20433;-65
2024/01/04 00:36:03;;;;;;;5.03;3.30;;;;;;;;;;1038299;28;20080;-66
2024/01/04 00:36:34;;;;;;;5.38;3.20;;;;;;;;;;1038151;28;20071;-65
2024/01/04 00:37:04;;;;;;;6.65;3.38;;;;;;;;;;1037722;28;20045;-67
2024/01/04 00:37:35;;;;;;;7.50;3.88;;;;;;;;;;1037496;28;20060;-65
2024/01/04 00:38:05;;;;;;;5.65;3.35;;;;;;;;;;1038132;28;20053;-66
2024/01/04 00:38:36;;;;;;;6.00;3.38;;;;;;;;;;1036726;28;20041;-66
2024/01/04 00:39:06;;;;;;;5.20;3.30;;;;;;;;;;1038480;28;20034;-66
2024/01/04 00:39:37;;;;;;;8.88;3.75;;;;;;;;;;1036973;28;20656;-66
2024/01/04 00:40:08;;;;;;;7.28;3.60;;;;;;;;;;1037411;28;20042;-66
2024/01/04 00:40:39;;;;;;;6.72;3.50;;;;;;;;;;1037086;28;20053;-65
2024/01/04 00:41:10;;;;;;;7.28;3.28;;;;;;;;;;1037957;28;20053;-65
2024/01/04 00:41:40;;;;;;;7.43;3.40;;;;;;;;;;1036508;28;20045;-66
2024/01/04 00:42:11;;;;;;;4.82;3.58;;;;;;;;;;1037120;28;20123;-66
2024/01/04 00:42:41;;;;;;;7.00;3.33;;;;;;;;;;1037392;28;20100;-67
2024/01/04 00:43:12;;;;;;;8.27;3.45;;;;;;;;;;1037605;28;20068;-66
2024/01/04 00:43:42;;;;;;;7.75;3.55;;;;;;;;;;1037009;28;20281;-66
2024/01/04 00:44:13;;;;;;;7.60;3.28;;;;;;;;;;1037174;28;20214;-65
2024/01/04 00:44:43;;;;;;;7.13;3.15;;;;;;;;;;1036827;28;20544;-66
2024/01/04 00:45:14;;;;;;;6.78;3.50;;;;;;;;;;1037120;28;20609;-66
2024/01/04 00:45:44;;;;;;;9.75;3.30;;;;;;;;;;1038198;28;20049;-67
2024/01/04 00:46:15;;;;;;;7.82;3.22;;;;;;;;;;1038637;28;20041;-66
2024/01/04 00:46:46;;;;;;;5.82;3.28;;;;;;;;;;1037569;28;20056;-67
2024/01/04 00:47:16;;;;;;;8.05;3.63;;;;;;;;;;1037536;28;20049;-67
2024/01/04 00:47:47;;;;;;;8.75;3.75;;;;;;;;;;1037610;28;20060;-65
2024/01/04 00:48:17;;;;;;;5.90;3.65;;;;;;;;;;1036561;28;20049;-64
2024/01/04 00:48:47;;;;;;;5.30;3.15;;;;;;;;;;1036935;28;20045;-67
2024/01/04 00:49:18;;;;;;;5.70;3.08;;;;;;;;;;1037842;28;20054;-67
2024/01/04 00:49:48;;;;;;;6.15;2.90;;;;;;;;;;1037331;28;20057;-65
2024/01/04 00:50:19;;;;;;;7.25;2.88;;;;;;;;;;1036716;28;20049;-67
2024/01/04 00:50:50;;;;;;;5.15;2.97;;;;;;;;;;1037888;28;20537;-66
2024/01/04 00:51:20;;;;;;;6.72;3.22;;;;;;;;;;1037710;28;20061;-65
2024/01/04 00:51:51;;;;;;;7.20;3.17;;;;;;;;;;1035243;28;20050;-67
2024/01/04 00:52:21;;;;;;;6.90;3.20;;;;;;;;;;1035299;28;20151;-65
2024/01/04 00:52:51;;;;;;;6.65;3.35;;;;;;;;;;1036807;28;20057;-66
2024/01/04 00:53:22;;;;;;;6.05;3.17;;;;;;;;;;1037697;28;20397;-68
2024/01/04 00:53:52;;;;;;;6.10;3.22;;;;;;;;;;1036583;28;20045;-66
2024/01/04 00:54:23;;;;;;;7.00;3.10;;;;;;;;;;1035707;28;20140;-66
2024/01/04 00:54:55;;;;;;;5.78;3.05;;;;;;;;;;1036795;28;20053;-67
2024/01/04 00:55:26;;;;;;;6.18;3.00;;;;;;;;;;1037244;28;20049;-68
2024/01/04 00:55:56;;;;;;;9.40;3.50;;;;;;;;;;1035429;28;20137;-65
2024/01/04 00:56:36;;;;;;;6.70;3.15;;;;;;;;;;1037626;28;20501;-67
2024/01/04 00:57:08;;;;;;;;;;;;;;;;;;1037916;28;20578;-65
2024/01/04 00:57:38;;;;;;;7.55;3.15;;;;;;;;;;1037633;28;19927;-67
2024/01/04 00:58:10;;;;;;;7.18;3.28;;;;;;;;;;1037898;28;20124;-65
2024/01/04 00:58:40;;;;;;;5.90;3.03;;;;;;;;;;1036110;28;20037;-67
2024/01/04 00:59:11;;;;;;;7.30;3.40;;;;;;;;;;1037394;28;20049;-67
2024/01/04 00:59:42;;;;;;;4.93;3.20;;;;;;;;;;1037770;28;20163;-66
2024/01/04 01:00:13;;;;;;;6.40;2.75;;;;;;;;;;1037962;28;20045;-68
2024/01/04 01:00:43;;;;;;;6.00;3.40;;;;;;;;;;1037674;28;20052;-65
2024/01/04 01:01:14;;;;;;;8.13;2.88;;;;;;;;;;1035518;28;20049;-66
2024/01/04 01:01:44;;;;;;;7.80;3.13;;;;;;;;;;1037256;28;20772;-66
2024/01/04 01:02:15;;;;;;;4.00;3.35;;;;;;;;;;1036682;28;20034;-65
2024/01/04 01:02:45;;;;;;;4.55;2.47;;;;;;;;;;1038227;28;20041;-67
2024/01/04 01:03:16;;;;;;;5.95;3.13;;;;;;;;;;1037164;28;20060;-66
2024/01/04 01:03:46;;;;;;;4.88;3.10;;;;;;;;;;1037344;28;20137;-67
2024/01/04 01:04:17;;;;;;;5.85;2.92;;;;;;;;;;1035113;28;20421;-66
2024/01/04 01:04:47;;;;;;;5.70;3.22;;;;;;;;;;1034820;28;20062;-67
2024/01/04 01:05:18;;;;;;;5.80;3.20;;;;;;;;;;1035054;28;20047;-67
2024/01/04 01:05:49;;;;;;;5.00;2.70;;;;;;;;;;1034885;28;20506;-67
2024/01/04 01:06:20;;;;;;;7.72;2.90;;;;;;;;;;1034848;28;20068;-67
2024/01/04 01:06:50;;;;;;;6.57;3.72;;;;;;;;;;1037272;28;20140;-67
2024/01/04 01:07:21;;;;;;;6.43;3.42;;;;;;;;;;1034400;28;20037;-67
2024/01/04 01:07:51;;;;;;;8.48;3.45;;;;;;;;;;1033529;28;20154;-66
2024/01/04 01:08:22;;;;;;;6.03;2.85;;;;;;;;;;1034788;28;20049;-68
2024/01/04 01:08:52;;;;;;;6.32;2.83;;;;;;;;;;1032920;28;20046;-65
2024/01/04 01:09:23;;;;;;;4.72;2.88;;;;;;;;;;1033840;28;20049;-66
2024/01/04 01:09:53;;;;;;;4.60;2.90;;;;;;;;;;1034399;28;20049;-67
2024/01/04 01:10:24;;;;;;;9.23;3.13;;;;;;;;;;1033626;28;20785;-66
2024/01/04 01:10:54;;;;;;;5.25;2.80;;;;;;;;;;1034831;28;20049;-65
2024/01/04 01:11:25;;;;;;;5.47;2.70;;;;;;;;;;1034902;28;20041;-65
2024/01/04 01:11:55;;;;;;;4.20;2.78;;;;;;;;;;1035843;28;20413;-66
2024/01/04 01:12:26;;;;;;;5.15;2.75;;;;;;;;;;1036541;28;20488;-67
2024/01/04 01:12:57;;;;;;;5.60;2.70;;;;;;;;;;1035527;28;20103;-68
2024/01/04 01:13:27;;;;;;;8.02;3.13;;;;;;;;;;1035187;28;20099;-65
2024/01/04 01:13:58;;;;;;;7.55;3.20;;;;;;;;;;1035929;28;20382;-66
2024/01/04 01:14:28;;;;;;;4.38;2.80;;;;;;;;;;1036680;28;20053;-67
2024/01/04 01:14:59;;;;;;;4.72;3.15;;;;;;;;;;1035834;28;20049;-66
2024/01/04 01:15:29;;;;;;;7.15;3.65;;;;;;;;;;1037831;28;20095;-65
2024/01/04 01:16:00;;;;;;;5.32;3.03;;;;;;;;;;1034787;28;20053;-66
2024/01/04 01:16:31;;;;;;;9.93;3.85;;;;;;;;;;1034858;28;20045;-66
2024/01/04 01:17:02;;;;;;;4.20;2.47;;;;;;;;;;1033944;28;20046;-66
2024/01/04 01:17:32;;;;;;;7.65;3.28;;;;;;;;;;1033711;28;20505;-67
2024/01/04 01:18:03;;;;;;;5.15;2.72;;;;;;;;;;1034370;28;20065;-66
2024/01/04 01:18:34;;;;;;;5.38;2.80;;;;;;;;;;1035443;28;20077;-66
2024/01/04 01:19:05;;;;;;;5.53;3.15;;;;;;;;;;1034799;28;20837;-65
2024/01/04 01:19:37;;;;;;;5.78;2.70;;;;;;;;;;1034707;28;20498;-66
2024/01/04 01:20:08;;;;;;;6.40;3.03;;;;;;;;;;1035741;28;20045;-65
2024/01/04 01:20:39;;;;;;;6.05;2.80;;;;;;;;;;1034490;28;22049;-68
2024/01/04 01:21:09;;;;;;;6.18;2.80;;;;;;;;;;1033766;28;20701;-66
2024/01/04 01:21:41;;;;;;;7.03;3.00;;;;;;;;;;1034214;28;20065;-68
2024/01/04 01:22:11;;;;;;;4.07;2.30;;;;;;;;;;1036615;28;20049;-65
2024/01/04 01:22:42;;;;;;;6.10;2.70;;;;;;;;;;1035179;28;20050;-66
2024/01/04 01:23:12;;;;;;;6.03;3.20;;;;;;;;;;1034598;28;20057;-65
2024/01/04 01:23:43;;;;;;;8.40;2.88;;;;;;;;;;1034160;28;20112;-66
2024/01/04 01:24:13;;;;;;;8.15;3.10;;;;;;;;;;1033865;28;20050;-66
2024/01/04 01:24:44;;;;;;;6.13;2.97;;;;;;;;;;1034200;28;20058;-65
2024/01/04 01:25:14;;;;;;;4.18;2.97;;;;;;;;;;1034601;28;20138;-65
2024/01/04 01:25:45;;;;;;;6.40;2.78;;;;;;;;;;1033576;28;20060;-66
2024/01/04 01:26:15;;;;;;;4.43;2.92;;;;;;;;;;1035004;28;20038;-66
2024/01/04 01:26:46;;;;;;;7.22;3.00;;;;;;;;;;1033826;28;20060;-67
2024/01/04 01:27:16;;;;;;;4.78;2.92;;;;;;;;;;1034607;28;20050;-67
2024/01/04 01:27:47;;;;;;;6.43;2.35;;;;;;;;;;1034477;28;20056;-67
2024/01/04 01:28:17;;;;;;;7.18;2.78;;;;;;;;;;1034474;28;20426;-67
2024/01/04 01:28:48;;;;;;;6.55;2.55;;;;;;;;;;1034849;28;20055;-66
2024/01/04 01:29:18;;;;;;;6.93;2.67;;;;;;;;;;1034467;28;20053;-67
2024/01/04 01:29:49;;;;;;;3.63;2.50;;;;;;;;;;1035577;28;20049;-65
2024/01/04 01:30:19;;;;;;;4.10;2.28;;;;;;;;;;1035164;28;20069;-66
2024/01/04 01:30:50;;;;;;;6.65;2.85;;;;;;;;;;1034755;28;20041;-66
2024/01/04 01:31:21;;;;;;;3.15;1.98;;;;;;;;;;1034576;28;20054;-65
2024/01/04 01:31:51;;;;;;;3.65;2.20;;;;;;;;;;1034305;28;20516;-66
2024/01/04 01:32:22;;;;;;;3.85;2.15;;;;;;;;;;1036709;28;20040;-66
2024/01/04 01:32:53;;;;;;;9.48;2.88;;;;;;;;;;1035086;28;20053;-66
2024/01/04 01:33:24;;;;;;;3.95;2.60;;;;;;;;;;1035734;28;20429;-66
2024/01/04 01:33:55;;;;;;;3.72;2.55;;;;;;;;;;1033988;28;20143;-67
2024/01/04 01:34:25;;;;;;;4.65;2.50;;;;;;;;;;1034129;28;20054;-65
2024/01/04 01:34:57;;;;;;;5.13;2.50;;;;;;;;;;1034052;28;20064;-65
2024/01/04 01:35:28;;;;;;;3.88;2.38;;;;;;;;;;1035030;28;20044;-65
2024/01/04 01:35:58;;;;;;;7.45;2.42;;;;;;;;;;1033802;28;20077;-66
2024/01/04 01:36:29;;;;;;;4.28;2.78;;;;;;;;;;1035334;28;20499;-67
2024/01/04 01:36:59;;;;;;;7.68;2.50;;;;;;;;;;1034903;28;20049;-67
2024/01/04 01:37:30;;;;;;;4.85;2.22;;;;;;;;;;1035387;28;20498;-66
2024/01/04 01:38:00;;;;;;;3.80;2.50;;;;;;;;;;1036001;28;20456;-66
2024/01/04 01:38:31;;;;;;;4.28;2.33;;;;;;;;;;1035089;28;20052;-69
2024/01/04 01:39:02;;;;;;;5.78;2.47;;;;;;;;;;1033667;28;20188;-65
2024/01/04 01:39:32;;;;;;;8.27;3.15;;;;;;;;;;1033861;28;20054;-65
2024/01/04 01:40:04;;;;;;;5.55;2.53;;;;;;;;;;1034659;28;20125;-65
2024/01/04 01:40:34;;;;;;;4.55;2.72;;;;;;;;;;1033655;28;20053;-66
2024/01/04 01:41:05;;;;;;;8.13;2.35;;;;;;;;;;1034176;28;20068;-68
2024/01/04 01:41:35;;;;;;;3.05;2.22;;;;;;;;;;1033918;28;20088;-65
2024/01/04 01:42:06;;;;;;;2.42;1.80;;;;;;;;;;1035711;28;20154;-66
2024/01/04 01:42:36;;;;;;;5.90;2.63;;;;;;;;;;1037577;28;20438;-66
2024/01/04 01:43:07;;;;;;;5.40;2.45;;;;;;;;;;1036438;28;20056;-65
2024/01/04 01:43:37;;;;;;;6.40;2.30;;;;;;;;;;1035720;28;20080;-65
2024/01/04 01:44:08;;;;;;;4.50;2.60;;;;;;;;;;1035873;28;20103;-66
2024/01/04 01:44:38;;;;;;;2.70;2.35;;;;;;;;;;1036716;28;20497;-65
2024/01/04 01:45:09;;;;;;;8.07;2.70;;;;;;;;;;1035684;28;20135;-66
2024/01/04 01:45:39;;;;;;;6.88;3.28;;;;;;;;;;1037160;28;20041;-66
2024/01/04 01:46:10;;;;;;;6.03;2.80;;;;;;;;;;1037190;28;20060;-65
2024/01/04 01:46:41;;;;;;;4.57;2.42;;;;;;;;;;1036193;28;20132;-64
2024/01/04 01:47:12;;;;;;;4.43;2.53;;;;;;;;;;1036165;28;20045;-66
2024/01/04 01:47:45;;;;;;;6.30;2.63;;;;;;;;;;1033608;28;20077;-64
2024/01/04 01:48:16;;;;;;;5.65;2.85;;;;;;;;;;1034676;28;20144;-69
2024/01/04 01:48:46;;;;;;;5.13;2.90;;;;;;;;;;1033761;28;20054;-66
2024/01/04 01:49:17;;;;;;;5.90;2.90;;;;;;;;;;1033888;28;20573;-66
2024/01/04 01:49:48;;;;;;;4.88;2.50;;;;;;;;;;1034248;28;20042;-65
2024/01/04 01:50:20;;;;;;;3.03;2.60;;;;;;;;;;1034263;28;20045;-67
2024/01/04 01:50:51;;;;;;;6.05;2.75;;;;;;;;;;1034065;28;20057;-67
2024/01/04 01:51:22;;;;;;;4.05;2.67;;;;;;;;;;1034422;28;20431;-65
2024/01/04 01:51:53;;;;;;;8.00;2.55;;;;;;;;;;1035678;28;20502;-67
2024/01/04 01:52:24;;;;;;;4.55;2.92;;;;;;;;;;1035451;28;20054;-67
2024/01/04 01:52:54;;;;;;;5.15;2.60;;;;;;;;;;1034600;28;20049;-65
2024/01/04 01:53:26;;;;;;;7.43;2.90;;;;;;;;;;1036151;28;20444;-66
2024/01/04 01:53:57;;;;;;;4.75;2.80;;;;;;;;;;1034769;28;20053;-65
2024/01/04 01:54:28;;;;;;;2.88;2.50;;;;;;;;;;1036131;28;20100;-66
2024/01/04 01:54:58;;;;;;;4.03;2.70;;;;;;;;;;1034644;28;20061;-65
2024/01/04 01:55:30;;;;;;;4.95;3.00;;;;;;;;;;1036070;28;20052;-68
2024/01/04 01:56:01;;;;;;;4.35;2.63;;;;;;;;;;1034574;28;20082;-68
2024/01/04 01:56:33;;;;;;;5.28;2.55;;;;;;;;;;1036265;28;20057;-67
2024/01/04 01:57:03;;;;;;;4.28;2.60;;;;;;;;;;1034019;28;20061;-66
2024/01/04 01:57:34;;;;;;;7.20;2.83;;;;;;;;;;1035205;28;20054;-66
2024/01/04 01:58:05;;;;;;;8.70;2.65;;;;;;;;;;1037461;28;20058;-69
2024/01/04 01:58:36;;;;;;;6.20;3.33;;;;;;;;;;1035959;28;20072;-64
2024/01/04 01:59:07;;;;;;;8.77;3.38;;;;;;;;;;1037064;28;20596;-66
2024/01/04 01:59:38;;;;;;;4.45;2.85;;;;;;;;;;1036043;28;20711;-65
2024/01/04 02:00:10;;;;;;;6.43;3.03;;;;;;;;;;1037607;28;20067;-68
2024/01/04 02:00:41;;;;;;;4.35;3.25;;;;;;;;;;1038180;28;20180;-65
2024/01/04 02:01:11;;;;;;;7.40;3.13;;;;;;;;;;1036857;28;20119;-65
2024/01/04 02:01:42;;;;;;;4.57;2.42;;;;;;;;;;1038613;28;20061;-66
2024/01/04 02:02:13;;;;;;;8.80;3.03;;;;;;;;;;1039889;28;20045;-66
2024/01/04 02:02:47;;;;;;;6.65;3.22;;;;;;;;;;1037823;28;20450;-67
2024/01/04 02:03:17;;;;;;;6.47;2.88;;;;;;;;;;1039294;28;20049;-66
2024/01/04 02:03:49;;;;;;;6.70;3.28;;;;;;;;;;1034905;28;20049;-64
2024/01/04 02:04:19;;;;;;;5.03;2.70;;;;;;;;;;1035016;28;20049;-66
2024/01/04 02:04:50;;;;;;;3.67;2.92;;;;;;;;;;1034150;28;20049;-67
2024/01/04 02:05:20;;;;;;;6.53;2.95;;;;;;;;;;1035973;28;20057;-66
2024/01/04 02:05:51;;;;;;;7.88;3.05;;;;;;;;;;1034582;28;20105;-66
2024/01/04 02:06:21;;;;;;;7.75;3.60;;;;;;;;;;1037616;28;20057;-66
2024/01/04 02:06:52;;;;;;;6.20;3.25;;;;;;;;;;1035307;28;20057;-66
2024/01/04 02:07:23;;;;;;;3.63;2.63;;;;;;;;;;1035355;28;20057;-65
2024/01/04 02:07:54;;;;;;;3.65;2.70;;;;;;;;;;1034495;28;20054;-66
2024/01/04 02:08:24;;;;;;;7.43;3.20;;;;;;;;;;1036263;28;20045;-68
2024/01/04 02:08:55;;;;;;;5.25;3.40;;;;;;;;;;1036016;28;20681;-68
2024/01/04 02:09:26;;;;;;;5.40;2.80;;;;;;;;;;1037325;28;20057;-66
2024/01/04 02:09:56;;;;;;;8.43;2.70;;;;;;;;;;1034614;28;20045;-68
2024/01/04 02:10:27;;;;;;;5.93;2.80;;;;;;;;;;1034511;28;20046;-65
2024/01/04 02:10:57;;;;;;;5.63;3.05;;;;;;;;;;1034772;28;20057;-67
2024/01/04 02:11:27;;;;;;;3.45;2.95;;;;;;;;;;1035289;28;20053;-64
2024/01/04 02:12:04;;;;;;;4.57;3.00;;;;;;;;;;1035140;28;20603;-67
2024/01/04 02:12:34;;;;;;;7.22;3.05;;;;;;;;;;1034349;28;20136;-65
2024/01/04 02:13:05;;;;;;;4.03;3.25;;;;;;;;;;1036916;28;20075;-67
2024/01/04 02:13:36;;;;;;;4.13;2.78;;;;;;;;;;1038327;28;20039;-66
2024/01/04 02:14:07;;;;;;;3.97;2.92;;;;;;;;;;1035390;28;20057;-65
2024/01/04 02:14:38;;;;;;;3.75;2.78;;;;;;;;;;1036370;28;20057;-66
2024/01/04 02:15:08;;;;;;;4.93;2.75;;;;;;;;;;1036744;28;20482;-66
2024/01/04 02:15:39;;;;;;;7.57;3.08;;;;;;;;;;1034896;28;20054;-67
2024/01/04 02:16:09;;;;;;;6.90;3.20;;;;;;;;;;1035040;28;20600;-65
2024/01/04 02:16:40;;;;;;;5.82;3.03;;;;;;;;;;1035070;28;20057;-65
2024/01/04 02:17:12;;;;;;;5.68;3.08;;;;;;;;;;1035280;28;20056;-68
2024/01/04 02:17:42;;;;;;;7.75;3.03;;;;;;;;;;1034633;28;20061;-66
2024/01/04 02:18:13;;;;;;;4.85;2.75;;;;;;;;;;1035181;28;20057;-67
2024/01/04 02:18:43;;;;;;;4.53;2.80;;;;;;;;;;1034100;28;21048;-66
2024/01/04 02:19:14;;;;;;;5.65;3.10;;;;;;;;;;1035691;28;20057;-67
2024/01/04 02:19:46;;;;;;;5.75;2.97;;;;;;;;;;1033721;28;20352;-69
2024/01/04 02:20:16;;;;;;;8.50;3.17;;;;;;;;;;1034444;28;20061;-65
2024/01/04 02:20:47;;;;;;;5.72;3.22;;;;;;;;;;1034873;28;20054;-66
2024/01/04 02:21:17;;;;;;;7.10;2.90;;;;;;;;;;1036542;28;20119;-67
2024/01/04 02:21:48;;;;;;;6.07;3.10;;;;;;;;;;1034442;28;20050;-67
2024/01/04 02:22:18;;;;;;;5.68;2.88;;;;;;;;;;1035775;28;20406;-66
2024/01/04 02:22:51;;;;;;;5.53;3.50;;;;;;;;;;1035257;28;20081;-66
2024/01/04 02:23:22;;;;;;;4.65;3.00;;;;;;;;;;1034468;28;20560;-66
2024/01/04 02:23:52;;;;;;;4.88;2.67;;;;;;;;;;1034682;28;20830;-65
2024/01/04 02:24:23;;;;;;;6.38;2.88;;;;;;;;;;1036284;28;20053;-67
2024/01/04 02:24:53;;;;;;;6.13;3.13;;;;;;;;;;1035443;28;20136;-67
2024/01/04 02:25:24;;;;;;;4.10;2.80;;;;;;;;;;1034837;28;20046;-65
2024/01/04 02:25:55;;;;;;;4.28;2.70;;;;;;;;;;1035006;28;20057;-66
2024/01/04 02:26:25;;;;;;;8.15;3.17;;;;;;;;;;1034513;28;20054;-64
2024/01/04 02:26:56;;;;;;;4.28;2.47;;;;;;;;;;1034419;28;20391;-65
2024/01/04 02:27:26;;;;;;;4.80;2.63;;;;;;;;;;1035213;28;20055;-65
2024/01/04 02:27:57;;;;;;;4.07;2.58;;;;;;;;;;1034277;28;20053;-65
2024/01/04 02:28:27;;;;;;;7.65;3.05;;;;;;;;;;1035363;28;20059;-65
2024/01/04 02:28:58;;;;;;;7.22;3.30;;;;;;;;;;1034678;28;20176;-67
2024/01/04 02:29:29;;;;;;;5.45;3.10;;;;;;;;;;1034529;28;20057;-66
2024/01/04 02:29:59;;;;;;;5.35;3.30;;;;;;;;;;1034264;28;20053;-65
2024/01/04 02:30:30;;;;;;;5.78;3.10;;;;;;;;;;1035155;28;20255;-67
2024/01/04 02:31:00;;;;;;;6.32;2.60;;;;;;;;;;1035133;28;20528;-68
2024/01/04 02:31:31;;;;;;;5.25;3.35;;;;;;;;;;1035079;28;20053;-65
2024/01/04 02:32:01;;;;;;;5.25;3.00;;;;;;;;;;1034838;28;20050;-67
2024/01/04 02:32:32;;;;;;;5.72;2.95;;;;;;;;;;1034258;28;20128;-68
2024/01/04 02:33:02;;;;;;;6.32;3.08;;;;;;;;;;1035004;28;20496;-66
2024/01/04 02:33:33;;;;;;;5.47;3.10;;;;;;;;;;1035114;28;20152;-67
2024/01/04 02:34:03;;;;;;;7.22;3.28;;;;;;;;;;1034612;28;20070;-67
2024/01/04 02:34:34;;;;;;;6.78;3.25;;;;;;;;;;1035459;28;20044;-66
2024/01/04 02:35:05;;;;;;;6.78;2.65;;;;;;;;;;1036403;28;20163;-65
2024/01/04 02:35:35;;;;;;;5.70;3.08;;;;;;;;;;1036090;28;20135;-67
2024/01/04 02:36:06;;;;;;;14.60;3.17;;;;;;;;;;1035955;28;20050;-67
2024/01/04 02:36:37;;;;;;;5.53;3.05;;;;;;;;;;1038449;28;20033;-66
2024/01/04 02:37:07;;;;;;;4.70;2.85;;;;;;;;;;1037035;28;20057;-67
2024/01/04 02:37:38;;;;;;;6.63;3.40;;;;;;;;;;1033846;28;20140;-65
2024/01/04 02:38:08;;;;;;;6.13;3.22;;;;;;;;;;1034221;28;20131;-67
2024/01/04 02:38:39;;;;;;;5.05;3.35;;;;;;;;;;1037991;28;20053;-66
2024/01/04 02:39:10;;;;;;;6.10;3.33;;;;;;;;;;1037989;28;20119;-67
2024/01/04 02:39:40;;;;;;;7.38;3.25;;;;;;;;;;1037597;28;20056;-66
2024/01/04 02:40:11;;;;;;;5.55;3.17;;;;;;;;;;1036399;28;20046;-65
2024/01/04 02:40:42;;;;;;;9.70;3.30;;;;;;;;;;1039619;28;20048;-67
2024/01/04 02:41:12;;;;;;;7.55;3.70;;;;;;;;;;1039448;28;20053;-66
2024/01/04 02:41:43;;;;;;;7.35;3.45;;;;;;;;;;1038179;28;20466;-67
2024/01/04 02:42:13;;;;;;;5.88;3.08;;;;;;;;;;1040029;28;20055;-66
2024/01/04 02:42:44;;;;;;;4.90;3.08;;;;;;;;;;1034426;28;20054;-66
2024/01/04 02:43:14;;;;;;;4.38;3.28;;;;;;;;;;1035947;28;20046;-66
2024/01/04 02:43:45;;;;;;;3.60;2.75;;;;;;;;;;1036168;28;20461;-67
2024/01/04 02:44:16;;;;;;;4.97;2.80;;;;;;;;;;1038147;28;20080;-65
2024/01/04 02:44:46;;;;;;;6.38;3.40;;;;;;;;;;1037158;28;20053;-65
2024/01/04 02:45:17;;;;;;;7.45;3.30;;;;;;;;;;1037436;28;20052;-66
2024/01/04 02:45:47;;;;;;;7.88;3.58;;;;;;;;;;1037685;28;20045;-67
2024/01/04 02:46:18;;;;;;;3.55;2.75;;;;;;;;;;1036534;28;20045;-66
2024/01/04 02:46:48;;;;;;;3.75;2.75;;;;;;;;;;1034379;28;20045;-68
2024/01/04 02:47:19;;;;;;;4.30;2.90;;;;;;;;;;1035647;28;20382;-65
2024/01/04 02:47:50;;;;;;;4.60;2.90;;;;;;;;;;1034065;28;20049;-67
2024/01/04 02:48:21;;;;;;;4.93;2.97;;;;;;;;;;1034742;28;20061;-65
2024/01/04 02:48:52;;;;;;;4.97;2.83;;;;;;;;;;1034863;28;20049;-67
2024/01/04 02:49:22;;;;;;;5.63;3.13;;;;;;;;;;1034408;28;20034;-68
2024/01/04 02:49:53;;;;;;;4.53;3.10;;;;;;;;;;1035933;28;20049;-65
2024/01/04 02:50:23;;;;;;;5.43;3.17;;;;;;;;;;1034660;28;20049;-68
2024/01/04 02:50:54;;;;;;;6.05;3.28;;;;;;;;;;1034850;28;20425;-66
2024/01/04 02:51:24;;;;;;;5.63;3.05;;;;;;;;;;1034727;28;20061;-67
2024/01/04 02:51:55;;;;;;;6.47;3.08;;;;;;;;;;1034906;28;20504;-65
2024/01/04 02:52:25;;;;;;;6.47;3.67;;;;;;;;;;1034702;28;20058;-65
2024/01/04 02:52:56;;;;;;;8.50;3.08;;;;;;;;;;1034090;28;20054;-66
2024/01/04 02:53:26;;;;;;;5.32;2.65;;;;;;;;;;1035142;28;20053;-66
2024/01/04 02:53:57;;;;;;;6.15;2.97;;;;;;;;;;1034104;28;20061;-66
2024/01/04 02:54:30;;;;;;;7.88;2.80;;;;;;;;;;1034673;28;20053;-66
2024/01/04 02:55:00;;;;;;;5.40;2.97;;;;;;;;;;1034420;28;20056;-65
2024/01/04 02:55:31;;;;;;;3.85;2.60;;;;;;;;;;1035332;28;20457;-67
2024/01/04 02:56:02;;;;;;;7.82;3.42;;;;;;;;;;1030682;28;20481;-67
2024/01/04 02:56:33;;;;;;;5.32;2.90;;;;;;;;;;1031026;28;20050;-67
2024/01/04 02:57:04;;;;;;;7.60;3.10;;;;;;;;;;1034732;28;20053;-67
2024/01/04 02:57:34;;;;;;;4.60;2.80;;;;;;;;;;1034736;28;20058;-66
2024/01/04 02:58:05;;;;;;;4.80;2.72;;;;;;;;;;1035165;28;20069;-66
2024/01/04 02:58:35;;;;;;;6.55;3.28;;;;;;;;;;1035889;28;20053;-67
2024/01/04 02:59:07;;;;;;;8.52;3.05;;;;;;;;;;1038413;28;20068;-66
2024/01/04 02:59:38;;;;;;;6.65;3.05;;;;;;;;;;1037944;28;20083;-68
2024/01/04 03:00:09;;;;;;;4.57;2.60;;;;;;;;;;1038195;28;20049;-66
2024/01/04 03:00:39;;;;;;;6.13;3.03;;;;;;;;;;1037250;28;20136;-65
2024/01/04 03:01:10;;;;;;;6.28;3.10;;;;;;;;;;1037958;28;20050;-67
2024/01/04 03:01:43;;;;;;;3.67;2.70;;;;;;;;;;1035280;28;20097;-68
2024/01/04 03:02:15;;;;;;;5.90;2.95;;;;;;;;;;1036457;28;20691;-66
2024/01/04 03:02:45;;;;;;;5.15;3.05;;;;;;;;;;1036600;28;20053;-65
2024/01/04 03:03:16;;;;;;;8.80;3.38;;;;;;;;;;1035196;28;20058;-65
2024/01/04 03:03:55;;;;;;;5.82;2.67;;;;;;;;;;1034023;28;21687;-65
2024/01/04 03:04:25;;;;;;;5.18;3.17;;;;;;;;;;1036059;28;20046;-65
2024/01/04 03:04:56;;;;;;;6.63;2.97;;;;;;;;;;1034292;28;20126;-66